sensor_id;sensor_type;location;lat;lon;timestamp;P1;durP1;ratioP1;P2;durP2;ratioP2
8927;SDS011;4499;48.304;11.902;2023-05-07T00:00:23;8.60;;;7.00;;
8927;SDS011;4499;48.304;11.902;2023-05-07T00:02:52;8.10;;;6.80;;
8927;SDS011;4499;48.304;11.902;2023-05-07T00:05:20;9.60;;;7.97;;
8927;SDS011;4499;48.304;11.902;2023-05-07T00:07:48;8.73;;;7.80;;
8927;SDS011;4499;48.304;11.902;2023-05-07T00:10:16;10.83;;;7.33;;
8927;SDS011;4499;48.304;11.902;2023-05-07T00:12:46;7.20;;;6.50;;
8927;SDS011;4499;48.304;11.902;2023-05-07T00:15:14;9.20;;;6.43;;
8927;SDS011;4499;48.304;11.902;2023-05-07T00:17:42;7.50;;;6.40;;
8927;SDS011;4499;48.304;11.902;2023-05-07T00:20:11;7.80;;;6.47;;
8927;SDS011;4499;48.304;11.902;2023-05-07T00:22:39;8.50;;;6.17;;
8927;SDS011;4499;48.304;11.902;2023-05-07T00:25:08;7.70;;;6.73;;
8927;SDS011;4499;48.304;11.902;2023-05-07T00:27:36;9.63;;;7.03;;
8927;SDS011;4499;48.304;11.902;2023-05-07T00:30:06;10.07;;;6.83;;
8927;SDS011;4499;48.304;11.902;2023-05-07T00:32:36;7.63;;;6.83;;
8927;SDS011;4499;48.304;11.902;2023-05-07T00:35:04;8.13;;;7.33;;
8927;SDS011;4499;48.304;11.902;2023-05-07T00:37:34;8.53;;;6.50;;
8927;SDS011;4499;48.304;11.902;2023-05-07T00:40:02;7.70;;;6.90;;
8927;SDS011;4499;48.304;11.902;2023-05-07T00:42:33;9.07;;;6.70;;
8927;SDS011;4499;48.304;11.902;2023-05-07T00:45:01;9.37;;;6.90;;
8927;SDS011;4499;48.304;11.902;2023-05-07T00:47:31;7.53;;;6.70;;
8927;SDS011;4499;48.304;11.902;2023-05-07T00:49:59;8.47;;;6.63;;
8927;SDS011;4499;48.304;11.902;2023-05-07T00:52:28;9.77;;;6.97;;
8927;SDS011;4499;48.304;11.902;2023-05-07T00:54:57;8.03;;;6.33;;
8927;SDS011;4499;48.304;11.902;2023-05-07T00:57:27;10.20;;;7.50;;
8927;SDS011;4499;48.304;11.902;2023-05-07T00:59:55;7.33;;;6.63;;
8927;SDS011;4499;48.304;11.902;2023-05-07T01:02:26;7.70;;;6.60;;
8927;SDS011;4499;48.304;11.902;2023-05-07T01:04:58;6.70;;;5.93;;
8927;SDS011;4499;48.304;11.902;2023-05-07T01:07:28;9.80;;;7.00;;
8927;SDS011;4499;48.304;11.902;2023-05-07T01:09:58;7.40;;;6.63;;
8927;SDS011;4499;48.304;11.902;2023-05-07T01:12:26;7.50;;;6.33;;
8927;SDS011;4499;48.304;11.902;2023-05-07T01:14:55;7.63;;;6.90;;
8927;SDS011;4499;48.304;11.902;2023-05-07T01:17:23;7.50;;;6.80;;
8927;SDS011;4499;48.304;11.902;2023-05-07T01:19:52;8.33;;;6.50;;
8927;SDS011;4499;48.304;11.902;2023-05-07T01:22:27;7.57;;;6.80;;
8927;SDS011;4499;48.304;11.902;2023-05-07T01:24:58;7.70;;;6.90;;
8927;SDS011;4499;48.304;11.902;2023-05-07T01:27:28;7.37;;;6.43;;
8927;SDS011;4499;48.304;11.902;2023-05-07T01:29:56;9.63;;;6.23;;
8927;SDS011;4499;48.304;11.902;2023-05-07T01:32:26;6.93;;;6.33;;
8927;SDS011;4499;48.304;11.902;2023-05-07T01:34:58;7.87;;;7.07;;
8927;SDS011;4499;48.304;11.902;2023-05-07T01:37:29;8.37;;;6.77;;
8927;SDS011;4499;48.304;11.902;2023-05-07T01:39:58;8.53;;;6.83;;
8927;SDS011;4499;48.304;11.902;2023-05-07T01:42:26;7.73;;;6.93;;
8927;SDS011;4499;48.304;11.902;2023-05-07T01:44:55;7.07;;;6.47;;
8927;SDS011;4499;48.304;11.902;2023-05-07T01:47:24;8.60;;;6.47;;
8927;SDS011;4499;48.304;11.902;2023-05-07T01:49:53;7.67;;;6.33;;
8927;SDS011;4499;48.304;11.902;2023-05-07T01:52:22;7.57;;;6.73;;
8927;SDS011;4499;48.304;11.902;2023-05-07T01:54:52;7.53;;;6.47;;
8927;SDS011;4499;48.304;11.902;2023-05-07T01:57:20;7.83;;;6.90;;
8927;SDS011;4499;48.304;11.902;2023-05-07T01:59:48;9.77;;;6.60;;
8927;SDS011;4499;48.304;11.902;2023-05-07T02:02:16;9.60;;;6.40;;
8927;SDS011;4499;48.304;11.902;2023-05-07T02:04:44;7.27;;;6.43;;
8927;SDS011;4499;48.304;11.902;2023-05-07T02:07:12;8.43;;;6.57;;
8927;SDS011;4499;48.304;11.902;2023-05-07T02:09:40;8.00;;;6.40;;
8927;SDS011;4499;48.304;11.902;2023-05-07T02:12:10;9.00;;;6.47;;
8927;SDS011;4499;48.304;11.902;2023-05-07T02:14:38;7.43;;;6.43;;
8927;SDS011;4499;48.304;11.902;2023-05-07T02:17:06;7.33;;;5.83;;
8927;SDS011;4499;48.304;11.902;2023-05-07T02:19:34;7.27;;;6.23;;
8927;SDS011;4499;48.304;11.902;2023-05-07T02:22:02;6.73;;;6.03;;
8927;SDS011;4499;48.304;11.902;2023-05-07T02:24:30;7.07;;;6.07;;
8927;SDS011;4499;48.304;11.902;2023-05-07T02:26:58;6.23;;;5.63;;
8927;SDS011;4499;48.304;11.902;2023-05-07T02:29:28;7.30;;;5.93;;
8927;SDS011;4499;48.304;11.902;2023-05-07T02:31:56;6.97;;;6.27;;
8927;SDS011;4499;48.304;11.902;2023-05-07T02:34:24;7.03;;;5.90;;
8927;SDS011;4499;48.304;11.902;2023-05-07T02:36:52;7.33;;;6.60;;
8927;SDS011;4499;48.304;11.902;2023-05-07T02:39:20;9.40;;;6.60;;
8927;SDS011;4499;48.304;11.902;2023-05-07T02:41:48;7.80;;;6.10;;
8927;SDS011;4499;48.304;11.902;2023-05-07T02:44:16;7.63;;;6.70;;
8927;SDS011;4499;48.304;11.902;2023-05-07T02:46:45;7.37;;;6.50;;
8927;SDS011;4499;48.304;11.902;2023-05-07T02:49:13;7.70;;;6.40;;
8927;SDS011;4499;48.304;11.902;2023-05-07T02:51:41;9.03;;;6.53;;
8927;SDS011;4499;48.304;11.902;2023-05-07T02:54:09;7.03;;;6.33;;
8927;SDS011;4499;48.304;11.902;2023-05-07T02:56:37;9.03;;;6.87;;
8927;SDS011;4499;48.304;11.902;2023-05-07T02:59:05;7.30;;;6.50;;
8927;SDS011;4499;48.304;11.902;2023-05-07T03:01:33;8.77;;;6.90;;
8927;SDS011;4499;48.304;11.902;2023-05-07T03:04:03;8.27;;;6.90;;
8927;SDS011;4499;48.304;11.902;2023-05-07T03:06:31;9.10;;;6.60;;
8927;SDS011;4499;48.304;11.902;2023-05-07T03:09:00;8.07;;;6.90;;
8927;SDS011;4499;48.304;11.902;2023-05-07T03:11:28;8.20;;;7.20;;
8927;SDS011;4499;48.304;11.902;2023-05-07T03:13:56;8.07;;;7.03;;
8927;SDS011;4499;48.304;11.902;2023-05-07T03:16:24;7.67;;;6.60;;
8927;SDS011;4499;48.304;11.902;2023-05-07T03:18:52;9.63;;;7.30;;
8927;SDS011;4499;48.304;11.902;2023-05-07T03:21:22;8.47;;;7.23;;
8927;SDS011;4499;48.304;11.902;2023-05-07T03:23:50;8.17;;;6.50;;
8927;SDS011;4499;48.304;11.902;2023-05-07T03:26:18;8.53;;;6.87;;
8927;SDS011;4499;48.304;11.902;2023-05-07T03:28:46;7.73;;;6.90;;
8927;SDS011;4499;48.304;11.902;2023-05-07T03:31:14;7.47;;;6.67;;
8927;SDS011;4499;48.304;11.902;2023-05-07T03:33:49;10.10;;;7.00;;
8927;SDS011;4499;48.304;11.902;2023-05-07T03:36:19;7.90;;;6.50;;
8927;SDS011;4499;48.304;11.902;2023-05-07T03:38:49;8.97;;;6.90;;
8927;SDS011;4499;48.304;11.902;2023-05-07T03:41:17;8.07;;;7.07;;
8927;SDS011;4499;48.304;11.902;2023-05-07T03:43:45;7.40;;;6.70;;
8927;SDS011;4499;48.304;11.902;2023-05-07T03:46:13;8.10;;;7.13;;
8927;SDS011;4499;48.304;11.902;2023-05-07T03:48:41;10.33;;;7.37;;
8927;SDS011;4499;48.304;11.902;2023-05-07T03:51:09;8.80;;;7.80;;
8927;SDS011;4499;48.304;11.902;2023-05-07T03:53:37;8.33;;;7.20;;
8927;SDS011;4499;48.304;11.902;2023-05-07T03:56:06;8.50;;;7.17;;
8927;SDS011;4499;48.304;11.902;2023-05-07T03:58:34;8.60;;;7.70;;
8927;SDS011;4499;48.304;11.902;2023-05-07T04:01:03;8.23;;;7.13;;
8927;SDS011;4499;48.304;11.902;2023-05-07T04:03:31;8.83;;;7.77;;
8927;SDS011;4499;48.304;11.902;2023-05-07T04:05:59;9.03;;;8.13;;
8927;SDS011;4499;48.304;11.902;2023-05-07T04:08:28;9.43;;;8.07;;
8927;SDS011;4499;48.304;11.902;2023-05-07T04:10:56;30.77;;;8.13;;
8927;SDS011;4499;48.304;11.902;2023-05-07T04:13:25;8.80;;;8.03;;
8927;SDS011;4499;48.304;11.902;2023-05-07T04:15:54;9.07;;;7.73;;
8927;SDS011;4499;48.304;11.902;2023-05-07T04:18:23;8.93;;;7.63;;
8927;SDS011;4499;48.304;11.902;2023-05-07T04:20:51;8.80;;;7.80;;
8927;SDS011;4499;48.304;11.902;2023-05-07T04:23:19;9.23;;;7.43;;
8927;SDS011;4499;48.304;11.902;2023-05-07T04:25:47;8.67;;;7.80;;
8927;SDS011;4499;48.304;11.902;2023-05-07T04:28:15;7.73;;;6.93;;
8927;SDS011;4499;48.304;11.902;2023-05-07T04:30:45;7.60;;;6.43;;
8927;SDS011;4499;48.304;11.902;2023-05-07T04:33:13;8.23;;;7.40;;
8927;SDS011;4499;48.304;11.902;2023-05-07T04:35:43;8.57;;;6.80;;
8927;SDS011;4499;48.304;11.902;2023-05-07T04:38:11;9.50;;;7.07;;
8927;SDS011;4499;48.304;11.902;2023-05-07T04:40:39;8.90;;;7.00;;
8927;SDS011;4499;48.304;11.902;2023-05-07T04:43:07;7.47;;;6.77;;
8927;SDS011;4499;48.304;11.902;2023-05-07T04:45:35;7.83;;;7.00;;
8927;SDS011;4499;48.304;11.902;2023-05-07T04:48:08;9.93;;;7.23;;
8927;SDS011;4499;48.304;11.902;2023-05-07T04:50:36;8.50;;;7.00;;
8927;SDS011;4499;48.304;11.902;2023-05-07T04:53:04;8.37;;;6.17;;
8927;SDS011;4499;48.304;11.902;2023-05-07T04:55:32;7.17;;;6.47;;
8927;SDS011;4499;48.304;11.902;2023-05-07T04:58:00;6.73;;;6.00;;
8927;SDS011;4499;48.304;11.902;2023-05-07T05:00:29;7.60;;;6.80;;
8927;SDS011;4499;48.304;11.902;2023-05-07T05:02:57;11.20;;;7.13;;
8927;SDS011;4499;48.304;11.902;2023-05-07T05:05:27;6.77;;;6.03;;
8927;SDS011;4499;48.304;11.902;2023-05-07T05:07:55;9.23;;;7.47;;
8927;SDS011;4499;48.304;11.902;2023-05-07T05:10:23;10.87;;;7.80;;
8927;SDS011;4499;48.304;11.902;2023-05-07T05:12:51;8.53;;;7.63;;
8927;SDS011;4499;48.304;11.902;2023-05-07T05:15:19;10.07;;;8.40;;
8927;SDS011;4499;48.304;11.902;2023-05-07T05:17:47;9.33;;;8.40;;
8927;SDS011;4499;48.304;11.902;2023-05-07T05:20:16;9.33;;;8.43;;
8927;SDS011;4499;48.304;11.902;2023-05-07T05:22:45;10.03;;;8.30;;
8927;SDS011;4499;48.304;11.902;2023-05-07T05:25:13;10.77;;;8.03;;
8927;SDS011;4499;48.304;11.902;2023-05-07T05:27:41;10.10;;;8.90;;
8927;SDS011;4499;48.304;11.902;2023-05-07T05:30:10;10.57;;;9.47;;
8927;SDS011;4499;48.304;11.902;2023-05-07T05:32:39;10.60;;;9.27;;
8927;SDS011;4499;48.304;11.902;2023-05-07T05:35:07;10.00;;;9.10;;
8927;SDS011;4499;48.304;11.902;2023-05-07T05:37:35;10.80;;;9.80;;
8927;SDS011;4499;48.304;11.902;2023-05-07T05:40:05;11.90;;;9.30;;
8927;SDS011;4499;48.304;11.902;2023-05-07T05:42:35;10.83;;;9.73;;
8927;SDS011;4499;48.304;11.902;2023-05-07T05:45:03;10.63;;;9.27;;
8927;SDS011;4499;48.304;11.902;2023-05-07T05:47:32;11.40;;;10.20;;
8927;SDS011;4499;48.304;11.902;2023-05-07T05:50:00;11.50;;;9.70;;
8927;SDS011;4499;48.304;11.902;2023-05-07T05:52:29;10.73;;;8.87;;
8927;SDS011;4499;48.304;11.902;2023-05-07T05:54:57;8.87;;;7.97;;
8927;SDS011;4499;48.304;11.902;2023-05-07T05:57:26;8.70;;;7.80;;
8927;SDS011;4499;48.304;11.902;2023-05-07T05:59:54;8.67;;;7.20;;
8927;SDS011;4499;48.304;11.902;2023-05-07T06:02:22;9.37;;;6.53;;
8927;SDS011;4499;48.304;11.902;2023-05-07T06:04:52;8.60;;;6.20;;
8927;SDS011;4499;48.304;11.902;2023-05-07T06:07:20;7.17;;;5.70;;
8927;SDS011;4499;48.304;11.902;2023-05-07T06:09:48;8.70;;;6.60;;
8927;SDS011;4499;48.304;11.902;2023-05-07T06:12:16;8.33;;;7.03;;
8927;SDS011;4499;48.304;11.902;2023-05-07T06:14:46;10.57;;;7.40;;
8927;SDS011;4499;48.304;11.902;2023-05-07T06:17:14;10.57;;;7.80;;
8927;SDS011;4499;48.304;11.902;2023-05-07T06:19:44;10.07;;;7.43;;
8927;SDS011;4499;48.304;11.902;2023-05-07T06:22:12;8.07;;;6.97;;
8927;SDS011;4499;48.304;11.902;2023-05-07T06:24:40;9.13;;;7.40;;
8927;SDS011;4499;48.304;11.902;2023-05-07T06:27:09;9.40;;;7.23;;
8927;SDS011;4499;48.304;11.902;2023-05-07T06:29:37;9.60;;;6.53;;
8927;SDS011;4499;48.304;11.902;2023-05-07T06:32:09;8.77;;;6.33;;
8927;SDS011;4499;48.304;11.902;2023-05-07T06:34:39;8.07;;;6.57;;
8927;SDS011;4499;48.304;11.902;2023-05-07T06:37:07;9.07;;;6.43;;
8927;SDS011;4499;48.304;11.902;2023-05-07T06:39:35;7.17;;;6.47;;
8927;SDS011;4499;48.304;11.902;2023-05-07T06:42:03;9.30;;;7.30;;
8927;SDS011;4499;48.304;11.902;2023-05-07T06:44:32;6.53;;;5.93;;
8927;SDS011;4499;48.304;11.902;2023-05-07T06:47:00;7.25;;;5.97;;
8927;SDS011;4499;48.304;11.902;2023-05-07T06:49:29;7.85;;;5.55;;
8927;SDS011;4499;48.304;11.902;2023-05-07T06:51:57;8.32;;;6.30;;
8927;SDS011;4499;48.304;11.902;2023-05-07T06:54:25;8.50;;;5.50;;
8927;SDS011;4499;48.304;11.902;2023-05-07T06:56:54;6.97;;;5.28;;
8927;SDS011;4499;48.304;11.902;2023-05-07T06:59:23;6.43;;;5.35;;
8927;SDS011;4499;48.304;11.902;2023-05-07T07:01:51;6.45;;;5.43;;
8927;SDS011;4499;48.304;11.902;2023-05-07T07:04:19;7.90;;;5.75;;
8927;SDS011;4499;48.304;11.902;2023-05-07T07:06:49;6.57;;;5.18;;
8927;SDS011;4499;48.304;11.902;2023-05-07T07:09:19;7.38;;;5.53;;
8927;SDS011;4499;48.304;11.902;2023-05-07T07:11:49;7.18;;;5.47;;
8927;SDS011;4499;48.304;11.902;2023-05-07T07:14:18;6.55;;;5.07;;
8927;SDS011;4499;48.304;11.902;2023-05-07T07:16:46;7.30;;;5.53;;
8927;SDS011;4499;48.304;11.902;2023-05-07T07:19:14;5.20;;;4.70;;
8927;SDS011;4499;48.304;11.902;2023-05-07T07:21:42;5.13;;;4.30;;
8927;SDS011;4499;48.304;11.902;2023-05-07T07:24:12;5.40;;;4.20;;
8927;SDS011;4499;48.304;11.902;2023-05-07T07:26:45;4.50;;;3.90;;
8927;SDS011;4499;48.304;11.902;2023-05-07T07:29:13;6.38;;;4.60;;
8927;SDS011;4499;48.304;11.902;2023-05-07T07:31:41;4.50;;;3.92;;
8927;SDS011;4499;48.304;11.902;2023-05-07T07:34:09;4.57;;;3.42;;
8927;SDS011;4499;48.304;11.902;2023-05-07T07:36:37;5.43;;;4.22;;
8927;SDS011;4499;48.304;11.902;2023-05-07T07:39:13;5.90;;;3.83;;
8927;SDS011;4499;48.304;11.902;2023-05-07T07:41:41;5.05;;;3.40;;
8927;SDS011;4499;48.304;11.902;2023-05-07T07:44:09;5.05;;;3.40;;
8927;SDS011;4499;48.304;11.902;2023-05-07T07:46:41;4.10;;;3.38;;
8927;SDS011;4499;48.304;11.902;2023-05-07T07:49:09;3.90;;;3.25;;
8927;SDS011;4499;48.304;11.902;2023-05-07T07:51:37;4.75;;;3.20;;
8927;SDS011;4499;48.304;11.902;2023-05-07T07:54:05;3.22;;;2.92;;
8927;SDS011;4499;48.304;11.902;2023-05-07T07:56:35;4.63;;;2.92;;
8927;SDS011;4499;48.304;11.902;2023-05-07T07:59:04;4.80;;;3.22;;
8927;SDS011;4499;48.304;11.902;2023-05-07T08:01:32;3.05;;;2.75;;
8927;SDS011;4499;48.304;11.902;2023-05-07T08:04:00;2.97;;;2.70;;
8927;SDS011;4499;48.304;11.902;2023-05-07T08:06:29;3.33;;;2.80;;
8927;SDS011;4499;48.304;11.902;2023-05-07T08:08:58;4.15;;;3.28;;
8927;SDS011;4499;48.304;11.902;2023-05-07T08:11:26;4.28;;;2.92;;
8927;SDS011;4499;48.304;11.902;2023-05-07T08:13:56;3.20;;;2.60;;
8927;SDS011;4499;48.304;11.902;2023-05-07T08:16:24;4.88;;;3.00;;
8927;SDS011;4499;48.304;11.902;2023-05-07T08:18:53;3.10;;;2.90;;
8927;SDS011;4499;48.304;11.902;2023-05-07T08:21:21;3.40;;;2.65;;
8927;SDS011;4499;48.304;11.902;2023-05-07T08:23:49;5.38;;;2.65;;
8927;SDS011;4499;48.304;11.902;2023-05-07T08:26:17;2.90;;;2.60;;
8927;SDS011;4499;48.304;11.902;2023-05-07T08:28:46;2.88;;;2.58;;
8927;SDS011;4499;48.304;11.902;2023-05-07T08:31:15;4.13;;;2.40;;
8927;SDS011;4499;48.304;11.902;2023-05-07T08:33:44;4.88;;;2.90;;
8927;SDS011;4499;48.304;11.902;2023-05-07T08:36:12;4.28;;;2.92;;
8927;SDS011;4499;48.304;11.902;2023-05-07T08:38:40;3.28;;;2.83;;
8927;SDS011;4499;48.304;11.902;2023-05-07T08:41:10;5.38;;;2.60;;
8927;SDS011;4499;48.304;11.902;2023-05-07T08:43:38;3.53;;;2.65;;
8927;SDS011;4499;48.304;11.902;2023-05-07T08:46:08;4.05;;;2.63;;
8927;SDS011;4499;48.304;11.902;2023-05-07T08:48:39;4.10;;;2.70;;
8927;SDS011;4499;48.304;11.902;2023-05-07T08:51:08;4.22;;;2.65;;
8927;SDS011;4499;48.304;11.902;2023-05-07T08:53:39;7.82;;;2.50;;
8927;SDS011;4499;48.304;11.902;2023-05-07T08:56:09;4.18;;;2.60;;
8927;SDS011;4499;48.304;11.902;2023-05-07T08:58:37;2.70;;;2.30;;
8927;SDS011;4499;48.304;11.902;2023-05-07T09:01:06;4.18;;;2.80;;
8927;SDS011;4499;48.304;11.902;2023-05-07T09:03:36;3.72;;;2.50;;
8927;SDS011;4499;48.304;11.902;2023-05-07T09:06:06;4.72;;;2.72;;
8927;SDS011;4499;48.304;11.902;2023-05-07T09:08:35;3.28;;;2.58;;
8927;SDS011;4499;48.304;11.902;2023-05-07T09:11:03;3.60;;;2.58;;
8927;SDS011;4499;48.304;11.902;2023-05-07T09:13:31;3.00;;;2.70;;
8927;SDS011;4499;48.304;11.902;2023-05-07T09:16:01;4.85;;;2.60;;
8927;SDS011;4499;48.304;11.902;2023-05-07T09:18:42;2.72;;;2.50;;
8927;SDS011;4499;48.304;11.902;2023-05-07T09:21:11;3.40;;;2.67;;
8927;SDS011;4499;48.304;11.902;2023-05-07T09:23:42;2.92;;;2.35;;
8927;SDS011;4499;48.304;11.902;2023-05-07T09:26:10;2.90;;;2.60;;
8927;SDS011;4499;48.304;11.902;2023-05-07T09:28:39;4.35;;;2.70;;
8927;SDS011;4499;48.304;11.902;2023-05-07T09:31:08;3.88;;;2.60;;
8927;SDS011;4499;48.304;11.902;2023-05-07T09:33:37;4.53;;;3.33;;
8927;SDS011;4499;48.304;11.902;2023-05-07T09:36:08;5.43;;;2.80;;
8927;SDS011;4499;48.304;11.902;2023-05-07T09:38:37;4.32;;;3.15;;
8927;SDS011;4499;48.304;11.902;2023-05-07T09:41:06;3.15;;;2.83;;
8927;SDS011;4499;48.304;11.902;2023-05-07T09:43:35;8.45;;;3.30;;
8927;SDS011;4499;48.304;11.902;2023-05-07T09:46:06;5.07;;;3.13;;
8927;SDS011;4499;48.304;11.902;2023-05-07T09:48:36;5.38;;;3.10;;
8927;SDS011;4499;48.304;11.902;2023-05-07T09:51:11;4.93;;;2.70;;
8927;SDS011;4499;48.304;11.902;2023-05-07T09:53:48;3.80;;;2.80;;
8927;SDS011;4499;48.304;11.902;2023-05-07T09:56:19;3.97;;;2.97;;
8927;SDS011;4499;48.304;11.902;2023-05-07T09:58:49;4.57;;;3.20;;
8927;SDS011;4499;48.304;11.902;2023-05-07T10:01:20;6.30;;;2.50;;
8927;SDS011;4499;48.304;11.902;2023-05-07T10:03:49;3.95;;;2.75;;
8927;SDS011;4499;48.304;11.902;2023-05-07T10:06:20;3.90;;;3.40;;
8927;SDS011;4499;48.304;11.902;2023-05-07T10:08:48;3.83;;;2.60;;
8927;SDS011;4499;48.304;11.902;2023-05-07T10:11:17;3.53;;;2.70;;
8927;SDS011;4499;48.304;11.902;2023-05-07T10:13:45;3.28;;;2.30;;
8927;SDS011;4499;48.304;11.902;2023-05-07T10:16:15;2.50;;;2.28;;
8927;SDS011;4499;48.304;11.902;2023-05-07T10:18:44;4.07;;;2.30;;
8927;SDS011;4499;48.304;11.902;2023-05-07T10:21:14;2.45;;;2.08;;
8927;SDS011;4499;48.304;11.902;2023-05-07T10:23:48;4.80;;;2.38;;
8927;SDS011;4499;48.304;11.902;2023-05-07T10:26:29;2.90;;;1.90;;
8927;SDS011;4499;48.304;11.902;2023-05-07T10:29:03;4.10;;;2.10;;
8927;SDS011;4499;48.304;11.902;2023-05-07T10:31:46;3.90;;;2.45;;
8927;SDS011;4499;48.304;11.902;2023-05-07T10:34:24;3.33;;;2.22;;
8927;SDS011;4499;48.304;11.902;2023-05-07T10:36:57;2.85;;;2.15;;
8927;SDS011;4499;48.304;11.902;2023-05-07T10:39:26;3.35;;;2.30;;
8927;SDS011;4499;48.304;11.902;2023-05-07T10:41:55;3.05;;;2.40;;
8927;SDS011;4499;48.304;11.902;2023-05-07T10:44:26;2.58;;;1.67;;
8927;SDS011;4499;48.304;11.902;2023-05-07T10:47:05;4.70;;;2.25;;
8927;SDS011;4499;48.304;11.902;2023-05-07T10:49:36;3.75;;;2.25;;
8927;SDS011;4499;48.304;11.902;2023-05-07T10:52:25;4.25;;;2.30;;
8927;SDS011;4499;48.304;11.902;2023-05-07T10:57:53;5.88;;;2.55;;
8927;SDS011;4499;48.304;11.902;2023-05-07T11:00:40;4.90;;;2.78;;
8927;SDS011;4499;48.304;11.902;2023-05-07T11:03:09;3.10;;;2.60;;
8927;SDS011;4499;48.304;11.902;2023-05-07T11:05:38;3.15;;;2.35;;
8927;SDS011;4499;48.304;11.902;2023-05-07T11:08:07;3.80;;;2.22;;
8927;SDS011;4499;48.304;11.902;2023-05-07T11:10:48;2.63;;;1.92;;
8927;SDS011;4499;48.304;11.902;2023-05-07T11:16:17;4.05;;;2.72;;
8927;SDS011;4499;48.304;11.902;2023-05-07T11:18:46;4.60;;;3.47;;
8927;SDS011;4499;48.304;11.902;2023-05-07T11:24:00;3.33;;;3.00;;
8927;SDS011;4499;48.304;11.902;2023-05-07T11:26:29;3.78;;;2.90;;
8927;SDS011;4499;48.304;11.902;2023-05-07T11:29:00;4.13;;;2.47;;
8927;SDS011;4499;48.304;11.902;2023-05-07T11:31:28;3.53;;;3.00;;
8927;SDS011;4499;48.304;11.902;2023-05-07T11:33:57;3.40;;;3.00;;
8927;SDS011;4499;48.304;11.902;2023-05-07T11:36:25;3.07;;;2.77;;
8927;SDS011;4499;48.304;11.902;2023-05-07T11:38:58;4.43;;;2.80;;
8927;SDS011;4499;48.304;11.902;2023-05-07T11:41:33;4.57;;;2.90;;
8927;SDS011;4499;48.304;11.902;2023-05-07T11:44:03;6.07;;;3.30;;
8927;SDS011;4499;48.304;11.902;2023-05-07T11:46:31;4.80;;;2.53;;
8927;SDS011;4499;48.304;11.902;2023-05-07T11:49:00;2.43;;;1.97;;
8927;SDS011;4499;48.304;11.902;2023-05-07T11:51:29;5.37;;;2.60;;
8927;SDS011;4499;48.304;11.902;2023-05-07T11:53:58;3.57;;;2.80;;
8927;SDS011;4499;48.304;11.902;2023-05-07T11:56:26;3.47;;;2.60;;
8927;SDS011;4499;48.304;11.902;2023-05-07T11:58:54;3.00;;;2.60;;
8927;SDS011;4499;48.304;11.902;2023-05-07T12:01:23;4.13;;;2.47;;
8927;SDS011;4499;48.304;11.902;2023-05-07T12:03:51;4.00;;;2.63;;
8927;SDS011;4499;48.304;11.902;2023-05-07T12:06:19;3.60;;;2.60;;
8927;SDS011;4499;48.304;11.902;2023-05-07T12:08:47;3.63;;;2.80;;
8927;SDS011;4499;48.304;11.902;2023-05-07T12:11:16;4.30;;;2.50;;
8927;SDS011;4499;48.304;11.902;2023-05-07T12:13:51;3.93;;;2.70;;
8927;SDS011;4499;48.304;11.902;2023-05-07T12:16:25;3.10;;;2.73;;
8927;SDS011;4499;48.304;11.902;2023-05-07T12:18:54;4.03;;;2.53;;
8927;SDS011;4499;48.304;11.902;2023-05-07T12:21:25;3.07;;;2.67;;
8927;SDS011;4499;48.304;11.902;2023-05-07T12:23:53;2.77;;;2.23;;
8927;SDS011;4499;48.304;11.902;2023-05-07T12:26:21;3.80;;;2.60;;
8927;SDS011;4499;48.304;11.902;2023-05-07T12:28:50;3.57;;;2.47;;
8927;SDS011;4499;48.304;11.902;2023-05-07T12:31:19;2.20;;;2.00;;
8927;SDS011;4499;48.304;11.902;2023-05-07T12:33:48;3.37;;;2.00;;
8927;SDS011;4499;48.304;11.902;2023-05-07T12:36:17;3.80;;;2.33;;
8927;SDS011;4499;48.304;11.902;2023-05-07T12:38:49;3.13;;;2.00;;
8927;SDS011;4499;48.304;11.902;2023-05-07T12:41:17;2.47;;;1.70;;
8927;SDS011;4499;48.304;11.902;2023-05-07T12:43:45;2.70;;;1.73;;
8927;SDS011;4499;48.304;11.902;2023-05-07T12:46:13;4.73;;;1.87;;
8927;SDS011;4499;48.304;11.902;2023-05-07T12:48:43;2.30;;;1.70;;
8927;SDS011;4499;48.304;11.902;2023-05-07T12:51:14;12.90;;;2.40;;
8927;SDS011;4499;48.304;11.902;2023-05-07T12:53:43;2.70;;;1.80;;
8927;SDS011;4499;48.304;11.902;2023-05-07T12:56:11;4.23;;;1.97;;
8927;SDS011;4499;48.304;11.902;2023-05-07T12:58:42;4.27;;;1.80;;
8927;SDS011;4499;48.304;11.902;2023-05-07T13:01:10;3.57;;;1.97;;
8927;SDS011;4499;48.304;11.902;2023-05-07T13:03:41;3.57;;;2.10;;
8927;SDS011;4499;48.304;11.902;2023-05-07T13:06:18;2.70;;;1.90;;
8927;SDS011;4499;48.304;11.902;2023-05-07T13:08:46;2.93;;;2.20;;
8927;SDS011;4499;48.304;11.902;2023-05-07T13:11:14;1.90;;;1.80;;
8927;SDS011;4499;48.304;11.902;2023-05-07T13:13:42;3.60;;;1.70;;
8927;SDS011;4499;48.304;11.902;2023-05-07T13:16:10;2.97;;;1.80;;
8927;SDS011;4499;48.304;11.902;2023-05-07T13:18:39;4.13;;;1.60;;
8927;SDS011;4499;48.304;11.902;2023-05-07T13:21:10;3.70;;;1.50;;
8927;SDS011;4499;48.304;11.902;2023-05-07T13:23:40;2.80;;;1.50;;
8927;SDS011;4499;48.304;11.902;2023-05-07T13:26:09;2.30;;;1.40;;
8927;SDS011;4499;48.304;11.902;2023-05-07T13:28:51;2.27;;;1.63;;
8927;SDS011;4499;48.304;11.902;2023-05-07T13:31:20;2.10;;;1.70;;
8927;SDS011;4499;48.304;11.902;2023-05-07T13:33:48;1.73;;;1.50;;
8927;SDS011;4499;48.304;11.902;2023-05-07T13:36:16;3.73;;;1.53;;
8927;SDS011;4499;48.304;11.902;2023-05-07T13:38:45;2.43;;;1.63;;
8927;SDS011;4499;48.304;11.902;2023-05-07T13:41:13;1.70;;;1.60;;
8927;SDS011;4499;48.304;11.902;2023-05-07T13:43:42;1.60;;;1.50;;
8927;SDS011;4499;48.304;11.902;2023-05-07T13:46:10;2.83;;;1.40;;
8927;SDS011;4499;48.304;11.902;2023-05-07T13:48:38;1.77;;;1.50;;
8927;SDS011;4499;48.304;11.902;2023-05-07T13:51:06;2.00;;;1.60;;
8927;SDS011;4499;48.304;11.902;2023-05-07T13:53:34;3.17;;;1.77;;
8927;SDS011;4499;48.304;11.902;2023-05-07T13:56:04;3.40;;;1.90;;
8927;SDS011;4499;48.304;11.902;2023-05-07T13:58:32;2.40;;;1.60;;
8927;SDS011;4499;48.304;11.902;2023-05-07T14:01:10;1.83;;;1.47;;
8927;SDS011;4499;48.304;11.902;2023-05-07T14:03:38;4.73;;;1.80;;
8927;SDS011;4499;48.304;11.902;2023-05-07T14:06:06;1.77;;;1.40;;
8927;SDS011;4499;48.304;11.902;2023-05-07T14:08:35;2.47;;;1.50;;
8927;SDS011;4499;48.304;11.902;2023-05-07T14:11:04;1.90;;;1.40;;
8927;SDS011;4499;48.304;11.902;2023-05-07T14:13:32;1.97;;;1.40;;
8927;SDS011;4499;48.304;11.902;2023-05-07T14:16:01;1.50;;;1.40;;
8927;SDS011;4499;48.304;11.902;2023-05-07T14:18:30;2.67;;;1.40;;
8927;SDS011;4499;48.304;11.902;2023-05-07T14:21:00;5.53;;;1.50;;
8927;SDS011;4499;48.304;11.902;2023-05-07T14:23:28;3.40;;;1.33;;
8927;SDS011;4499;48.304;11.902;2023-05-07T14:25:57;2.97;;;1.70;;
8927;SDS011;4499;48.304;11.902;2023-05-07T14:28:26;1.73;;;1.30;;
8927;SDS011;4499;48.304;11.902;2023-05-07T14:30:54;2.30;;;1.30;;
8927;SDS011;4499;48.304;11.902;2023-05-07T14:33:23;3.10;;;1.60;;
8927;SDS011;4499;48.304;11.902;2023-05-07T14:35:51;1.80;;;1.50;;
8927;SDS011;4499;48.304;11.902;2023-05-07T14:38:19;3.20;;;1.63;;
8927;SDS011;4499;48.304;11.902;2023-05-07T14:40:47;1.40;;;1.30;;
8927;SDS011;4499;48.304;11.902;2023-05-07T14:43:15;3.47;;;1.50;;
8927;SDS011;4499;48.304;11.902;2023-05-07T14:45:44;3.10;;;1.63;;
8927;SDS011;4499;48.304;11.902;2023-05-07T14:48:13;3.57;;;1.60;;
8927;SDS011;4499;48.304;11.902;2023-05-07T14:50:41;4.13;;;1.93;;
8927;SDS011;4499;48.304;11.902;2023-05-07T14:53:09;3.43;;;2.00;;
8927;SDS011;4499;48.304;11.902;2023-05-07T14:55:38;2.13;;;1.50;;
8927;SDS011;4499;48.304;11.902;2023-05-07T14:58:06;5.67;;;1.47;;
8927;SDS011;4499;48.304;11.902;2023-05-07T15:00:34;2.57;;;1.80;;
8927;SDS011;4499;48.304;11.902;2023-05-07T15:03:06;1.90;;;1.60;;
8927;SDS011;4499;48.304;11.902;2023-05-07T15:05:35;4.40;;;1.80;;
8927;SDS011;4499;48.304;11.902;2023-05-07T15:08:05;3.30;;;1.70;;
8927;SDS011;4499;48.304;11.902;2023-05-07T15:10:34;3.57;;;1.80;;
8927;SDS011;4499;48.304;11.902;2023-05-07T15:13:07;2.67;;;1.57;;
8927;SDS011;4499;48.304;11.902;2023-05-07T15:15:41;2.60;;;1.53;;
8927;SDS011;4499;48.304;11.902;2023-05-07T15:18:12;2.10;;;1.73;;
8927;SDS011;4499;48.304;11.902;2023-05-07T15:20:40;6.37;;;1.80;;